sensor_id;sensor_type;location;lat;lon;timestamp;pressure;altitude;pressure_sealevel;temperature;humidity
11099;BME280;12223;42.650;23.364;2023-02-13T00:00:47;96405.88;;;-1.78;100.00
11099;BME280;12223;42.650;23.364;2023-02-13T00:03:14;96403.91;;;-1.62;100.00
11099;BME280;12223;42.650;23.364;2023-02-13T00:05:42;96404.81;;;-1.63;100.00
11099;BME280;12223;42.650;23.364;2023-02-13T00:08:09;96413.09;;;-1.58;100.00
11099;BME280;12223;42.650;23.364;2023-02-13T00:10:36;96405.94;;;-1.42;100.00
11099;BME280;12223;42.650;23.364;2023-02-13T00:13:03;96401.50;;;-1.40;100.00
11099;BME280;12223;42.650;23.364;2023-02-13T00:15:30;96403.97;;;-1.38;100.00
11099;BME280;12223;42.650;23.364;2023-02-13T00:17:56;96406.28;;;-1.46;100.00
11099;BME280;12223;42.650;23.364;2023-02-13T00:20:23;96412.59;;;-1.50;100.00
11099;BME280;12223;42.650;23.364;2023-02-13T00:22:52;96402.75;;;-1.58;100.00
11099;BME280;12223;42.650;23.364;2023-02-13T00:25:18;96410.81;;;-1.50;100.00
11099;BME280;12223;42.650;23.364;2023-02-13T00:27:45;96391.34;;;-1.43;100.00
11099;BME280;12223;42.650;23.364;2023-02-13T00:30:13;96403.44;;;-1.31;100.00
11099;BME280;12223;42.650;23.364;2023-02-13T00:32:40;96394.69;;;-1.17;100.00
11099;BME280;12223;42.650;23.364;2023-02-13T00:35:07;96397.75;;;-0.99;100.00
11099;BME280;12223;42.650;23.364;2023-02-13T00:37:33;96383.34;;;-1.03;100.00
11099;BME280;12223;42.650;23.364;2023-02-13T00:40:02;96405.75;;;-1.02;100.00
11099;BME280;12223;42.650;23.364;2023-02-13T00:42:28;96418.75;;;-1.15;100.00
11099;BME280;12223;42.650;23.364;2023-02-13T00:44:55;96420.31;;;-1.25;100.00
11099;BME280;12223;42.650;23.364;2023-02-13T00:47:22;96415.66;;;-1.33;100.00
11099;BME280;12223;42.650;23.364;2023-02-13T00:49:49;96412.00;;;-1.17;100.00
11099;BME280;12223;42.650;23.364;2023-02-13T00:52:15;96421.06;;;-1.36;100.00
11099;BME280;12223;42.650;23.364;2023-02-13T00:54:42;96425.13;;;-1.70;100.00
11099;BME280;12223;42.650;23.364;2023-02-13T00:57:10;96435.19;;;-1.52;100.00
11099;BME280;12223;42.650;23.364;2023-02-13T00:59:37;96433.31;;;-1.38;100.00
11099;BME280;12223;42.650;23.364;2023-02-13T01:02:04;96443.81;;;-1.52;100.00
11099;BME280;12223;42.650;23.364;2023-02-13T01:04:31;96439.97;;;-1.59;100.00
11099;BME280;12223;42.650;23.364;2023-02-13T01:06:58;96447.75;;;-1.46;100.00
11099;BME280;12223;42.650;23.364;2023-02-13T01:09:24;96445.84;;;-1.44;100.00
11099;BME280;12223;42.650;23.364;2023-02-13T01:11:51;96444.19;;;-1.58;100.00
11099;BME280;12223;42.650;23.364;2023-02-13T01:14:19;96437.38;;;-1.46;100.00
11099;BME280;12223;42.650;23.364;2023-02-13T01:16:46;96439.97;;;-1.46;100.00
11099;BME280;12223;42.650;23.364;2023-02-13T01:19:13;96447.50;;;-1.43;100.00
11099;BME280;12223;42.650;23.364;2023-02-13T01:21:41;96440.16;;;-1.37;100.00
11099;BME280;12223;42.650;23.364;2023-02-13T01:24:09;96435.78;;;-1.36;100.00
11099;BME280;12223;42.650;23.364;2023-02-13T01:26:36;96442.97;;;-1.65;100.00
11099;BME280;12223;42.650;23.364;2023-02-13T01:29:03;96449.59;;;-1.36;100.00
11099;BME280;12223;42.650;23.364;2023-02-13T01:31:31;96450.22;;;-1.57;100.00
11099;BME280;12223;42.650;23.364;2023-02-13T01:33:58;96444.09;;;-1.44;100.00
11099;BME280;12223;42.650;23.364;2023-02-13T01:36:25;96455.59;;;-1.48;100.00
11099;BME280;12223;42.650;23.364;2023-02-13T01:38:53;96449.16;;;-1.42;100.00
11099;BME280;12223;42.650;23.364;2023-02-13T01:41:20;96453.31;;;-1.27;100.00
11099;BME280;12223;42.650;23.364;2023-02-13T01:43:50;96460.84;;;-1.11;100.00
11099;BME280;12223;42.650;23.364;2023-02-13T01:46:26;96463.09;;;-1.07;100.00
11099;BME280;12223;42.650;23.364;2023-02-13T01:48:58;96470.16;;;-0.96;100.00
11099;BME280;12223;42.650;23.364;2023-02-13T01:51:30;96468.44;;;-1.21;100.00
11099;BME280;12223;42.650;23.364;2023-02-13T01:54:02;96463.06;;;-0.94;100.00
11099;BME280;12223;42.650;23.364;2023-02-13T01:56:32;96451.38;;;-1.00;100.00
11099;BME280;12223;42.650;23.364;2023-02-13T01:59:04;96457.50;;;-1.01;100.00
11099;BME280;12223;42.650;23.364;2023-02-13T02:01:32;96471.09;;;-0.97;100.00
11099;BME280;12223;42.650;23.364;2023-02-13T02:04:06;96467.75;;;-0.99;100.00
11099;BME280;12223;42.650;23.364;2023-02-13T02:06:36;96465.03;;;-0.85;100.00
11099;BME280;12223;42.650;23.364;2023-02-13T02:09:08;96466.31;;;-0.91;100.00
11099;BME280;12223;42.650;23.364;2023-02-13T02:11:41;96467.84;;;-0.88;100.00
11099;BME280;12223;42.650;23.364;2023-02-13T02:14:11;96470.00;;;-0.82;100.00
11099;BME280;12223;42.650;23.364;2023-02-13T02:16:38;96468.97;;;-0.79;100.00
11099;BME280;12223;42.650;23.364;2023-02-13T02:19:13;96471.66;;;-0.81;100.00
11099;BME280;12223;42.650;23.364;2023-02-13T02:27:55;96456.88;;;-1.04;100.00
11099;BME280;12223;42.650;23.364;2023-02-13T02:31:08;96452.19;;;-0.63;100.00
11099;BME280;12223;42.650;23.364;2023-02-13T02:33:53;96452.72;;;-0.58;100.00
11099;BME280;12223;42.650;23.364;2023-02-13T02:36:34;96451.69;;;-0.68;100.00
11099;BME280;12223;42.650;23.364;2023-02-13T02:39:10;96450.66;;;-0.65;100.00
11099;BME280;12223;42.650;23.364;2023-02-13T02:41:53;96456.44;;;-0.62;100.00
11099;BME280;12223;42.650;23.364;2023-02-13T02:44:31;96457.41;;;-0.39;100.00
11099;BME280;12223;42.650;23.364;2023-02-13T02:47:08;96463.91;;;-0.33;100.00
11099;BME280;12223;42.650;23.364;2023-02-13T02:50:02;96465.31;;;-0.29;100.00
11099;BME280;12223;42.650;23.364;2023-02-13T02:52:45;96464.44;;;-0.17;100.00
11099;BME280;12223;42.650;23.364;2023-02-13T02:55:21;96453.28;;;-0.07;100.00
11099;BME280;12223;42.650;23.364;2023-02-13T02:57:55;96448.78;;;-0.05;100.00
11099;BME280;12223;42.650;23.364;2023-02-13T03:00:52;96449.59;;;0.31;100.00
11099;BME280;12223;42.650;23.364;2023-02-13T03:03:38;96454.50;;;0.12;100.00
11099;BME280;12223;42.650;23.364;2023-02-13T03:06:29;96453.03;;;0.31;100.00
11099;BME280;12223;42.650;23.364;2023-02-13T03:09:00;96455.28;;;0.47;100.00
11099;BME280;12223;42.650;23.364;2023-02-13T03:11:48;96450.31;;;0.55;100.00
11099;BME280;12223;42.650;23.364;2023-02-13T03:14:34;96464.63;;;0.50;100.00
11099;BME280;12223;42.650;23.364;2023-02-13T03:17:02;96462.97;;;0.60;100.00
11099;BME280;12223;42.650;23.364;2023-02-13T03:19:56;96464.63;;;0.61;100.00
11099;BME280;12223;42.650;23.364;2023-02-13T03:22:48;96468.72;;;0.41;100.00
11099;BME280;12223;42.650;23.364;2023-02-13T03:25:20;96470.50;;;0.40;100.00
11099;BME280;12223;42.650;23.364;2023-02-13T03:28:05;96463.78;;;0.60;100.00
11099;BME280;12223;42.650;23.364;2023-02-13T03:30:59;96479.28;;;0.62;100.00
11099;BME280;12223;42.650;23.364;2023-02-13T03:33:40;96484.13;;;0.55;100.00
11099;BME280;12223;42.650;23.364;2023-02-13T03:36:17;96486.38;;;0.60;100.00
11099;BME280;12223;42.650;23.364;2023-02-13T03:39:08;96477.47;;;0.51;100.00
11099;BME280;12223;42.650;23.364;2023-02-13T03:41:40;96481.63;;;0.65;100.00
11099;BME280;12223;42.650;23.364;2023-02-13T03:44:12;96479.41;;;0.71;100.00
11099;BME280;12223;42.650;23.364;2023-02-13T03:46:45;96483.56;;;0.63;100.00
11099;BME280;12223;42.650;23.364;2023-02-13T03:49:19;96473.63;;;0.57;100.00
11099;BME280;12223;42.650;23.364;2023-02-13T03:52:07;96482.09;;;0.59;100.00
11099;BME280;12223;42.650;23.364;2023-02-13T03:54:42;96487.56;;;0.67;100.00
11099;BME280;12223;42.650;23.364;2023-02-13T03:57:28;96486.84;;;0.54;100.00
11099;BME280;12223;42.650;23.364;2023-02-13T04:00:15;96483.56;;;0.63;100.00
11099;BME280;12223;42.650;23.364;2023-02-13T04:02:50;96476.22;;;0.68;100.00
11099;BME280;12223;42.650;23.364;2023-02-13T04:05:21;96482.09;;;0.59;100.00
11099;BME280;12223;42.650;23.364;2023-02-13T04:07:50;96472.78;;;0.67;100.00
11099;BME280;12223;42.650;23.364;2023-02-13T04:10:19;96476.59;;;0.74;100.00
11099;BME280;12223;42.650;23.364;2023-02-13T04:12:54;96471.25;;;0.87;100.00
11099;BME280;12223;42.650;23.364;2023-02-13T04:15:28;96479.88;;;0.76;100.00
11099;BME280;12223;42.650;23.364;2023-02-13T04:18:03;96481.66;;;0.87;100.00
11099;BME280;12223;42.650;23.364;2023-02-13T04:20:30;96488.53;;;0.88;100.00
11099;BME280;12223;42.650;23.364;2023-02-13T04:23:03;96496.19;;;0.90;100.00
11099;BME280;12223;42.650;23.364;2023-02-13T04:25:31;96500.34;;;0.81;100.00
11099;BME280;12223;42.650;23.364;2023-02-13T04:27:59;96498.78;;;0.78;100.00
11099;BME280;12223;42.650;23.364;2023-02-13T04:30:25;96495.69;;;0.51;100.00
11099;BME280;12223;42.650;23.364;2023-02-13T04:32:52;96499.72;;;0.77;100.00
11099;BME280;12223;42.650;23.364;2023-02-13T04:35:19;96492.91;;;0.88;100.00
11099;BME280;12223;42.650;23.364;2023-02-13T04:37:46;96481.19;;;0.82;100.00
11099;BME280;12223;42.650;23.364;2023-02-13T04:40:13;96486.38;;;0.71;100.00
11099;BME280;12223;42.650;23.364;2023-02-13T04:42:41;96480.59;;;0.78;100.00
11099;BME280;12223;42.650;23.364;2023-02-13T04:45:08;96483.19;;;0.90;100.00
11099;BME280;12223;42.650;23.364;2023-02-13T04:47:35;96480.94;;;0.85;100.00
11099;BME280;12223;42.650;23.364;2023-02-13T04:50:04;96483.31;;;0.77;100.00
11099;BME280;12223;42.650;23.364;2023-02-13T04:52:31;96495.00;;;0.82;100.00
11099;BME280;12223;42.650;23.364;2023-02-13T04:54:58;96505.03;;;0.76;100.00
11099;BME280;12223;42.650;23.364;2023-02-13T04:57:24;96506.50;;;0.80;100.00
11099;BME280;12223;42.650;23.364;2023-02-13T04:59:53;96511.69;;;0.80;100.00
11099;BME280;12223;42.650;23.364;2023-02-13T05:02:19;96516.41;;;0.75;100.00
11099;BME280;12223;42.650;23.364;2023-02-13T05:04:46;96519.00;;;0.75;100.00
11099;BME280;12223;42.650;23.364;2023-02-13T05:07:13;96519.00;;;0.75;100.00
11099;BME280;12223;42.650;23.364;2023-02-13T05:09:39;96510.03;;;0.79;100.00
11099;BME280;12223;42.650;23.364;2023-02-13T05:12:06;96524.84;;;1.01;100.00
11099;BME280;12223;42.650;23.364;2023-02-13T05:14:33;96532.72;;;0.77;100.00
11099;BME280;12223;42.650;23.364;2023-02-13T05:17:01;96530.94;;;-0.04;100.00
11099;BME280;12223;42.650;23.364;2023-02-13T05:19:28;96500.22;;;-0.10;100.00
11099;BME280;12223;42.650;23.364;2023-02-13T05:21:57;96516.91;;;0.34;100.00
11099;BME280;12223;42.650;23.364;2023-02-13T05:24:41;96534.44;;;0.19;100.00
11099;BME280;12223;42.650;23.364;2023-02-13T05:27:08;96534.75;;;0.04;100.00
11099;BME280;12223;42.650;23.364;2023-02-13T05:29:35;96518.34;;;0.03;100.00
11099;BME280;12223;42.650;23.364;2023-02-13T05:32:02;96525.63;;;-0.13;100.00
11099;BME280;12223;42.650;23.364;2023-02-13T05:34:29;96517.97;;;-0.04;100.00
11099;BME280;12223;42.650;23.364;2023-02-13T05:36:57;96520.28;;;0.12;100.00
11099;BME280;12223;42.650;23.364;2023-02-13T05:39:25;96524.66;;;0.12;100.00
11099;BME280;12223;42.650;23.364;2023-02-13T05:41:51;96511.50;;;0.02;100.00
11099;BME280;12223;42.650;23.364;2023-02-13T05:44:18;96521.44;;;0.08;100.00
11099;BME280;12223;42.650;23.364;2023-02-13T05:46:45;96537.63;;;0.12;100.00
11099;BME280;12223;42.650;23.364;2023-02-13T05:49:14;96528.41;;;-0.16;100.00
11099;BME280;12223;42.650;23.364;2023-02-13T05:51:40;96526.03;;;0.05;100.00
11099;BME280;12223;42.650;23.364;2023-02-13T05:54:08;96529.31;;;0.07;100.00
11099;BME280;12223;42.650;23.364;2023-02-13T05:56:34;96528.88;;;0.13;100.00
11099;BME280;12223;42.650;23.364;2023-02-13T05:59:01;96546.25;;;0.12;100.00
11099;BME280;12223;42.650;23.364;2023-02-13T06:01:28;96529.66;;;0.02;100.00
11099;BME280;12223;42.650;23.364;2023-02-13T06:03:55;96533.94;;;0.03;100.00
11099;BME280;12223;42.650;23.364;2023-02-13T06:06:23;96545.16;;;0.04;100.00
11099;BME280;12223;42.650;23.364;2023-02-13T06:08:49;96543.38;;;0.04;100.00
11099;BME280;12223;42.650;23.364;2023-02-13T06:11:16;96536.44;;;0.05;100.00
11099;BME280;12223;42.650;23.364;2023-02-13T06:13:43;96553.16;;;0.24;100.00
11099;BME280;12223;42.650;23.364;2023-02-13T06:16:11;96553.66;;;0.29;100.00
11099;BME280;12223;42.650;23.364;2023-02-13T06:18:38;96545.09;;;0.16;100.00
11099;BME280;12223;42.650;23.364;2023-02-13T06:21:05;96513.00;;;-0.07;100.00
11099;BME280;12223;42.650;23.364;2023-02-13T06:23:33;96555.25;;;-0.05;100.00
11099;BME280;12223;42.650;23.364;2023-02-13T06:26:01;96550.00;;;0.08;100.00
11099;BME280;12223;42.650;23.364;2023-02-13T06:28:29;96557.78;;;0.32;100.00
11099;BME280;12223;42.650;23.364;2023-02-13T06:30:55;96560.16;;;0.35;100.00
11099;BME280;12223;42.650;23.364;2023-02-13T06:33:22;96565.34;;;0.35;100.00
11099;BME280;12223;42.650;23.364;2023-02-13T06:35:49;96564.41;;;0.36;100.00
11099;BME280;12223;42.650;23.364;2023-02-13T06:38:16;96573.19;;;0.46;100.00
11099;BME280;12223;42.650;23.364;2023-02-13T06:40:44;96565.38;;;0.46;100.00
11099;BME280;12223;42.650;23.364;2023-02-13T06:43:12;96584.69;;;0.55;100.00
11099;BME280;12223;42.650;23.364;2023-02-13T06:45:39;96577.25;;;0.61;100.00
11099;BME280;12223;42.650;23.364;2023-02-13T06:48:06;96582.56;;;0.60;100.00
11099;BME280;12223;42.650;23.364;2023-02-13T06:50:33;96585.88;;;0.62;100.00
11099;BME280;12223;42.650;23.364;2023-02-13T06:53:00;96581.38;;;0.64;100.00
11099;BME280;12223;42.650;23.364;2023-02-13T06:55:27;96581.97;;;0.56;100.00
11099;BME280;12223;42.650;23.364;2023-02-13T06:57:55;96581.72;;;0.59;100.00
11099;BME280;12223;42.650;23.364;2023-02-13T07:00:22;96579.75;;;0.63;100.00
11099;BME280;12223;42.650;23.364;2023-02-13T07:02:51;96580.91;;;0.70;100.00
11099;BME280;12223;42.650;23.364;2023-02-13T07:05:18;96577.06;;;0.87;100.00
11099;BME280;12223;42.650;23.364;2023-02-13T07:07:44;96581.06;;;0.68;100.00
11099;BME280;12223;42.650;23.364;2023-02-13T07:10:12;96566.97;;;0.71;100.00
11099;BME280;12223;42.650;23.364;2023-02-13T07:12:40;96578.16;;;1.06;100.00
11099;BME280;12223;42.650;23.364;2023-02-13T07:15:09;96573.31;;;1.13;100.00
11099;BME280;12223;42.650;23.364;2023-02-13T07:17:36;96582.66;;;1.15;100.00
11099;BME280;12223;42.650;23.364;2023-02-13T07:20:04;96582.91;;;1.24;100.00
11099;BME280;12223;42.650;23.364;2023-02-13T07:22:31;96564.91;;;1.20;100.00
11099;BME280;12223;42.650;23.364;2023-02-13T07:24:59;96557.25;;;1.19;100.00
11099;BME280;12223;42.650;23.364;2023-02-13T07:27:26;96596.84;;;1.34;100.00
11099;BME280;12223;42.650;23.364;2023-02-13T07:29:54;96589.50;;;1.28;100.00
11099;BME280;12223;42.650;23.364;2023-02-13T07:32:23;96601.13;;;1.35;100.00
11099;BME280;12223;42.650;23.364;2023-02-13T07:34:50;96597.91;;;1.53;100.00
11099;BME280;12223;42.650;23.364;2023-02-13T07:37:17;96595.91;;;1.68;100.00
11099;BME280;12223;42.650;23.364;2023-02-13T07:39:43;96604.66;;;1.78;100.00
11099;BME280;12223;42.650;23.364;2023-02-13T07:42:10;96598.13;;;1.84;100.00
11099;BME280;12223;42.650;23.364;2023-02-13T07:44:37;96597.78;;;1.88;100.00
11099;BME280;12223;42.650;23.364;2023-02-13T07:47:04;96597.28;;;1.94;100.00
11099;BME280;12223;42.650;23.364;2023-02-13T07:49:32;96602.72;;;1.91;100.00
11099;BME280;12223;42.650;23.364;2023-02-13T07:51:59;96603.25;;;1.74;100.00
11099;BME280;12223;42.650;23.364;2023-02-13T07:54:26;96594.13;;;1.35;100.00
11099;BME280;12223;42.650;23.364;2023-02-13T07:56:53;96600.44;;;1.33;100.00
11099;BME280;12223;42.650;23.364;2023-02-13T07:59:20;96595.88;;;1.79;100.00
11099;BME280;12223;42.650;23.364;2023-02-13T08:01:46;96594.78;;;1.93;100.00
11099;BME280;12223;42.650;23.364;2023-02-13T08:04:13;96599.94;;;2.15;100.00
11099;BME280;12223;42.650;23.364;2023-02-13T08:06:41;96593.75;;;1.73;100.00
11099;BME280;12223;42.650;23.364;2023-02-13T08:09:16;96589.66;;;2.02;100.00
11099;BME280;12223;42.650;23.364;2023-02-13T08:12:01;96600.78;;;2.16;100.00
11099;BME280;12223;42.650;23.364;2023-02-13T08:14:28;96599.44;;;2.32;100.00
11099;BME280;12223;42.650;23.364;2023-02-13T08:16:55;96587.56;;;2.39;100.00
11099;BME280;12223;42.650;23.364;2023-02-13T08:19:23;96590.59;;;2.76;100.00
11099;BME280;12223;42.650;23.364;2023-02-13T08:21:51;96591.72;;;2.63;100.00
11099;BME280;12223;42.650;23.364;2023-02-13T08:24:18;96605.38;;;2.55;100.00
11099;BME280;12223;42.650;23.364;2023-02-13T08:26:45;96597.66;;;2.22;100.00
11099;BME280;12223;42.650;23.364;2023-02-13T08:29:12;96590.16;;;2.39;100.00
11099;BME280;12223;42.650;23.364;2023-02-13T08:31:38;96603.38;;;2.48;100.00
11099;BME280;12223;42.650;23.364;2023-02-13T08:34:05;96592.47;;;2.54;100.00
11099;BME280;12223;42.650;23.364;2023-02-13T08:36:32;96599.34;;;2.75;100.00
11099;BME280;12223;42.650;23.364;2023-02-13T08:39:00;96590.00;;;2.73;100.00
11099;BME280;12223;42.650;23.364;2023-02-13T08:41:27;96595.66;;;2.57;100.00
11099;BME280;12223;42.650;23.364;2023-02-13T08:43:54;96605.28;;;2.77;100.00
11099;BME280;12223;42.650;23.364;2023-02-13T08:46:21;96599.50;;;2.95;100.00
11099;BME280;12223;42.650;23.364;2023-02-13T08:48:47;96603.88;;;2.73;100.00
11099;BME280;12223;42.650;23.364;2023-02-13T08:51:14;96607.28;;;2.53;100.00
11099;BME280;12223;42.650;23.364;2023-02-13T08:53:41;96605.44;;;2.01;100.00
11099;BME280;12223;42.650;23.364;2023-02-13T08:56:09;96603.59;;;1.47;100.00
11099;BME280;12223;42.650;23.364;2023-02-13T08:58:36;96594.38;;;1.43;100.00
11099;BME280;12223;42.650;23.364;2023-02-13T09:01:05;96605.47;;;1.79;100.00
11099;BME280;12223;42.650;23.364;2023-02-13T09:03:32;96602.75;;;1.80;100.00
11099;BME280;12223;42.650;23.364;2023-02-13T09:05:59;96592.09;;;2.26;100.00
11099;BME280;12223;42.650;23.364;2023-02-13T09:08:26;96586.59;;;2.40;100.00
11099;BME280;12223;42.650;23.364;2023-02-13T09:10:57;96598.00;;;2.60;100.00
11099;BME280;12223;42.650;23.364;2023-02-13T09:13:27;96598.34;;;2.88;100.00
11099;BME280;12223;42.650;23.364;2023-02-13T09:15:57;96567.84;;;2.88;100.00
11099;BME280;12223;42.650;23.364;2023-02-13T09:18:24;96606.22;;;2.97;100.00
11099;BME280;12223;42.650;23.364;2023-02-13T09:20:56;96601.19;;;3.26;100.00
11099;BME280;12223;42.650;23.364;2023-02-13T09:23:23;96589.06;;;3.55;100.00
11099;BME280;12223;42.650;23.364;2023-02-13T09:25:50;96587.41;;;3.94;100.00
11099;BME280;12223;42.650;23.364;2023-02-13T09:28:16;96592.00;;;4.21;100.00
11099;BME280;12223;42.650;23.364;2023-02-13T09:30:44;96564.34;;;4.38;98.97
11099;BME280;12223;42.650;23.364;2023-02-13T09:33:13;96577.09;;;3.93;98.82
11099;BME280;12223;42.650;23.364;2023-02-13T09:35:40;96590.56;;;3.79;99.39
11099;BME280;12223;42.650;23.364;2023-02-13T09:38:09;96578.19;;;3.50;100.00
11099;BME280;12223;42.650;23.364;2023-02-13T09:40:39;96582.69;;;3.08;100.00
11099;BME280;12223;42.650;23.364;2023-02-13T09:43:13;96583.44;;;2.78;100.00
11099;BME280;12223;42.650;23.364;2023-02-13T09:45:45;96577.66;;;2.75;100.00
11099;BME280;12223;42.650;23.364;2023-02-13T09:48:27;96570.88;;;2.31;100.00
11099;BME280;12223;42.650;23.364;2023-02-13T09:50:55;96572.13;;;2.68;100.00
11099;BME280;12223;42.650;23.364;2023-02-13T09:53:23;96558.22;;;3.09;100.00
11099;BME280;12223;42.650;23.364;2023-02-13T09:55:59;96557.19;;;3.61;100.00
11099;BME280;12223;42.650;23.364;2023-02-13T09:58:38;96561.50;;;3.82;100.00
11099;BME280;12223;42.650;23.364;2023-02-13T10:01:17;96557.31;;;4.10;100.00
11099;BME280;12223;42.650;23.364;2023-02-13T10:03:52;96558.28;;;4.28;100.00
11099;BME280;12223;42.650;23.364;2023-02-13T10:06:24;96550.00;;;3.44;100.00
11099;BME280;12223;42.650;23.364;2023-02-13T10:09:09;96558.47;;;3.77;100.00
11099;BME280;12223;42.650;23.364;2023-02-13T10:12:00;96542.88;;;4.15;100.00
11099;BME280;12223;42.650;23.364;2023-02-13T10:14:35;96543.16;;;4.41;97.55
11099;BME280;12223;42.650;23.364;2023-02-13T10:17:10;96539.69;;;4.60;96.36
11099;BME280;12223;42.650;23.364;2023-02-13T10:19:40;96528.94;;;4.63;96.48
11099;BME280;12223;42.650;23.364;2023-02-13T10:22:12;96525.91;;;4.87;95.59
11099;BME280;12223;42.650;23.364;2023-02-13T10:24:43;96525.03;;;5.05;92.26
11099;BME280;12223;42.650;23.364;2023-02-13T10:27:18;96522.50;;;5.13;88.95
11099;BME280;12223;42.650;23.364;2023-02-13T10:29:49;96518.16;;;5.32;91.66
11099;BME280;12223;42.650;23.364;2023-02-13T10:32:53;96499.88;;;5.49;84.30
11099;BME280;12223;42.650;23.364;2023-02-13T10:35:35;96513.31;;;5.64;81.79
11099;BME280;12223;42.650;23.364;2023-02-13T10:38:12;96493.84;;;5.66;80.94
11099;BME280;12223;42.650;23.364;2023-02-13T10:40:47;96506.03;;;5.85;79.16
11099;BME280;12223;42.650;23.364;2023-02-13T10:43:19;96494.72;;;5.85;77.21
11099;BME280;12223;42.650;23.364;2023-02-13T10:45:55;96488.03;;;5.73;74.91
11099;BME280;12223;42.650;23.364;2023-02-13T10:48:36;96483.25;;;5.86;75.90
11099;BME280;12223;42.650;23.364;2023-02-13T10:51:12;96478.19;;;6.02;75.61
11099;BME280;12223;42.650;23.364;2023-02-13T10:53:51;96473.94;;;6.19;74.37
11099;BME280;12223;42.650;23.364;2023-02-13T10:56:26;96468.22;;;5.60;76.11
11099;BME280;12223;42.650;23.364;2023-02-13T10:59:39;96470.13;;;5.41;78.41
11099;BME280;12223;42.650;23.364;2023-02-13T11:02:22;96470.41;;;5.10;80.46
11099;BME280;12223;42.650;23.364;2023-02-13T11:04:57;96475.66;;;5.10;82.43
11099;BME280;12223;42.650;23.364;2023-02-13T11:07:25;96456.63;;;4.62;84.20
11099;BME280;12223;42.650;23.364;2023-02-13T11:09:55;96463.97;;;4.95;84.44
11099;BME280;12223;42.650;23.364;2023-02-13T11:12:26;96453.56;;;5.13;83.53
11099;BME280;12223;42.650;23.364;2023-02-13T11:14:55;96441.56;;;5.20;84.26
11099;BME280;12223;42.650;23.364;2023-02-13T11:17:22;96441.84;;;5.17;81.29
11099;BME280;12223;42.650;23.364;2023-02-13T11:19:53;96446.00;;;5.64;81.16
11099;BME280;12223;42.650;23.364;2023-02-13T11:22:31;96436.16;;;5.49;78.96
11099;BME280;12223;42.650;23.364;2023-02-13T11:25:02;96435.44;;;5.02;78.71
11099;BME280;12223;42.650;23.364;2023-02-13T11:27:32;96414.72;;;5.08;81.36
11099;BME280;12223;42.650;23.364;2023-02-13T11:30:03;96425.00;;;5.47;82.53
11099;BME280;12223;42.650;23.364;2023-02-13T11:32:32;96416.41;;;5.72;78.03
11099;BME280;12223;42.650;23.364;2023-02-13T11:35:26;96420.72;;;5.46;76.59
11099;BME280;12223;42.650;23.364;2023-02-13T11:38:19;96411.44;;;5.34;77.87
11099;BME280;12223;42.650;23.364;2023-02-13T11:40:50;96411.44;;;5.51;75.90
11099;BME280;12223;42.650;23.364;2023-02-13T11:43:18;96400.66;;;5.37;73.61
11099;BME280;12223;42.650;23.364;2023-02-13T11:46:00;96396.69;;;5.50;73.91
11099;BME280;12223;42.650;23.364;2023-02-13T11:48:27;96392.28;;;5.06;73.98
11099;BME280;12223;42.650;23.364;2023-02-13T11:50:56;96384.75;;;5.20;74.09
11099;BME280;12223;42.650;23.364;2023-02-13T11:53:26;96379.13;;;5.43;72.77
11099;BME280;12223;42.650;23.364;2023-02-13T11:56:03;96377.31;;;5.43;72.99
11099;BME280;12223;42.650;23.364;2023-02-13T11:58:31;96368.91;;;5.22;72.53
11099;BME280;12223;42.650;23.364;2023-02-13T12:01:22;96358.78;;;5.27;74.49
11099;BME280;12223;42.650;23.364;2023-02-13T12:04:02;96360.09;;;5.41;75.97
11099;BME280;12223;42.650;23.364;2023-02-13T12:06:31;96360.91;;;5.77;74.87
11099;BME280;12223;42.650;23.364;2023-02-13T12:09:04;96349.00;;;5.82;73.25
11099;BME280;12223;42.650;23.364;2023-02-13T12:11:35;96354.66;;;5.87;71.82
11099;BME280;12223;42.650;23.364;2023-02-13T12:14:04;96355.88;;;5.83;67.58
11099;BME280;12223;42.650;23.364;2023-02-13T12:16:38;96346.75;;;5.52;63.54
11099;BME280;12223;42.650;23.364;2023-02-13T12:19:11;96354.66;;;5.87;63.69
11099;BME280;12223;42.650;23.364;2023-02-13T12:21:54;96353.50;;;5.72;63.36
11099;BME280;12223;42.650;23.364;2023-02-13T12:24:40;96342.66;;;5.67;64.70
11099;BME280;12223;42.650;23.364;2023-02-13T12:27:17;96348.94;;;5.74;65.01
11099;BME280;12223;42.650;23.364;2023-02-13T12:29:56;96342.13;;;5.99;64.69
11099;BME280;12223;42.650;23.364;2023-02-13T12:32:35;96345.63;;;6.33;63.46
11099;BME280;12223;42.650;23.364;2023-02-13T12:35:29;96337.25;;;6.56;62.09
11099;BME280;12223;42.650;23.364;2023-02-13T12:38:03;96333.13;;;6.27;60.58
11099;BME280;12223;42.650;23.364;2023-02-13T12:44:07;96290.88;;;5.87;61.90
11099;BME280;12223;42.650;23.364;2023-02-13T12:46:51;96323.66;;;6.34;59.78
11099;BME280;12223;42.650;23.364;2023-02-13T12:49:33;96311.72;;;6.40;59.61
11099;BME280;12223;42.650;23.364;2023-02-13T12:52:16;96319.72;;;6.64;58.08
11099;BME280;12223;42.650;23.364;2023-02-13T12:54:59;96314.03;;;6.77;57.22
11099;BME280;12223;42.650;23.364;2023-02-13T12:57:37;96309.22;;;6.64;55.89
11099;BME280;12223;42.650;23.364;2023-02-13T13:00:19;96292.66;;;5.86;54.77
11099;BME280;12223;42.650;23.364;2023-02-13T13:03:07;96305.66;;;6.14;55.73
11099;BME280;12223;42.650;23.364;2023-02-13T13:05:56;96305.50;;;6.15;56.49
11099;BME280;12223;42.650;23.364;2023-02-13T13:08:36;96301.97;;;6.24;56.29
11099;BME280;12223;42.650;23.364;2023-02-13T13:11:22;96300.25;;;6.41;55.56
11099;BME280;12223;42.650;23.364;2023-02-13T13:13:59;96302.66;;;6.00;55.87
11099;BME280;12223;42.650;23.364;2023-02-13T13:16:38;96297.13;;;6.12;55.90
11099;BME280;12223;42.650;23.364;2023-02-13T13:19:17;96295.22;;;6.22;55.84
11099;BME280;12223;42.650;23.364;2023-02-13T13:21:48;96292.53;;;6.14;55.82
11099;BME280;12223;42.650;23.364;2023-02-13T13:24:29;96292.94;;;6.01;55.51